< < Back
Terminal Aerodrome Forecast


Current Version              Previous Versions:   1  2  3  4  5  6  7  8  9  

Terminal Aerodrome Forecast

518
FTUS44 KOHX 260434 AAB
TAFBNA
TAF AMD
KBNA 260434Z 2605/2624 19003KT P6SM SCT040 BKN250=

Latest METAR

888
SAUS70 KWBC 260400 RRD
MTRBNA
METAR KBNA 260353Z 19005KT 10SM SCT050CB BKN120 26/18 A3011 RMK AO2 LTG
DSNT S-W TSB23E50 PRESFR SLP187 TS DSPTD CB SW MOV NNE
T02610183


USA.gov is the U.S. government's official web portal to all federal, state and local government web resources and services.